Time;durP1;ratioP1;P1;durP2;ratioP2;P2;SDS_P1;SDS_P2;PMS_P1;PMS_P2;Temp;Humidity;BMP_temperature;BMP_pressure;BME280_temperature;BME280_humidity;BME280_pressure;Samples;Min_cycle;Max_cycle;Signal;HPM_P1;HPM_P2
2023/01/24 00:02:07;;;;;;;3.35;1.85;;;9.10;88.50;;;;;;10774906;32;20330;-73
2023/01/24 00:08:12;;;;;;;1.80;1.23;;;9.10;89.00;;;;;;10787631;33;20441;-73
2023/01/24 00:14:14;;;;;;;2.00;1.27;;;9.20;89.10;;;;;;10787491;33;20016;-73
2023/01/24 00:20:16;;;;;;;2.92;1.65;;;9.20;89.10;;;;;;10787497;33;20016;-73
2023/01/24 00:26:20;;;;;;;4.70;1.75;;;9.30;89.10;;;;;;10510832;28;12186829;-73
2023/01/24 00:32:22;;;;;;;2.53;0.80;;;9.20;88.50;;;;;;10900273;32;20023;-73
2023/01/24 00:38:24;;;;;;;2.53;1.02;;;9.20;88.80;;;;;;10887599;32;20054;-73
2023/01/24 00:44:26;;;;;;;4.43;0.95;;;9.20;88.80;;;;;;10907087;32;20019;-73
2023/01/24 00:50:28;;;;;;;1.90;0.90;;;9.10;88.70;;;;;;10936035;32;20019;-74
2023/01/24 00:56:30;;;;;;;3.35;1.27;;;9.20;88.90;;;;;;10934100;32;20035;-73
2023/01/24 01:02:32;;;;;;;2.03;0.77;;;9.20;89.00;;;;;;10944232;32;20316;-74
2023/01/24 01:08:35;;;;;;;1.90;0.70;;;9.20;89.10;;;;;;10947636;32;20397;-73
2023/01/24 01:14:37;;;;;;;2.85;1.42;;;9.20;89.00;;;;;;10946213;32;20007;-74
2023/01/24 01:20:39;;;;;;;4.22;1.30;;;9.20;89.00;;;;;;10947304;32;20051;-73
2023/01/24 01:26:41;;;;;;;1.00;0.52;;;9.20;89.20;;;;;;10947034;32;20041;-73
2023/01/24 01:32:43;;;;;;;2.28;1.27;;;9.20;88.90;;;;;;10932952;32;20028;-73
2023/01/24 01:38:45;;;;;;;4.18;1.55;;;9.00;89.00;;;;;;10946844;32;20042;-73
2023/01/24 01:44:49;;;;;;;1.02;0.90;;;9.10;89.10;;;;;;10946478;32;20014;-73
2023/01/24 01:51:06;;;;;;;1.10;0.80;;;9.10;88.80;;;;;;10945083;32;20037;-73
2023/01/24 01:57:11;;;;;;;1.83;0.90;;;9.10;88.60;;;;;;10932584;32;20016;-73
2023/01/24 02:09:40;;;;;;;1.20;1.08;;;9.20;88.50;;;;;;10946261;32;20027;-73
2023/01/24 02:16:03;;;;;;;1.37;0.80;;;9.20;88.60;;;;;;10941727;32;20014;-74
2023/01/24 02:22:23;;;;;;;2.33;1.70;;;9.20;88.50;;;;;;10944138;32;20393;-74
2023/01/24 02:28:26;;;;;;;2.10;1.37;;;9.10;88.40;;;;;;10944892;32;20049;-74
2023/01/24 02:34:29;;;;;;;1.55;0.80;;;9.10;88.40;;;;;;10944486;32;20263;-74
2023/01/24 02:40:52;;;;;;;1.58;1.15;;;9.20;88.50;;;;;;10944616;32;20023;-74
2023/01/24 02:46:54;;;;;;;1.65;1.00;;;9.20;88.60;;;;;;10930615;32;20061;-74
2023/01/24 02:59:17;;;;;;;2.03;1.10;;;9.00;88.50;;;;;;10943855;32;20015;-74
2023/01/24 03:05:20;;;;;;;2.87;2.03;;;9.00;88.70;;;;;;10943372;32;20333;-74
2023/01/24 03:11:22;;;;;;;2.50;1.62;;;9.00;88.60;;;;;;10943422;32;20333;-74
2023/01/24 03:36:31;;;;;;;2.50;0.98;;;8.80;88.10;;;;;;10942674;32;20360;-74
2023/01/24 03:42:34;;;;;;;2.62;1.30;;;8.70;87.90;;;;;;10928733;32;20053;-74
2023/01/24 03:48:36;;;;;;;2.10;1.20;;;8.70;87.80;;;;;;10942114;32;20019;-73
2023/01/24 03:54:39;;;;;;;2.30;1.42;;;8.70;87.80;;;;;;10942123;32;20306;-73
2023/01/24 04:00:42;;;;;;;1.58;1.02;;;8.70;87.70;;;;;;10928128;32;20342;-73
2023/01/24 04:06:45;;;;;;;1.65;1.00;;;8.60;87.50;;;;;;10940898;32;20015;-73
2023/01/24 04:12:47;;;;;;;1.08;0.73;;;8.40;87.50;;;;;;10927223;32;20045;-73
2023/01/24 04:18:50;;;;;;;2.47;1.35;;;8.40;87.40;;;;;;10948783;32;20018;-73
2023/01/24 04:24:57;;;;;;;3.65;1.83;;;8.50;87.10;;;;;;10948978;32;20023;-72
2023/01/24 04:31:01;;;;;;;1.60;1.35;;;8.70;86.80;;;;;;10948994;32;20055;-73
2023/01/24 04:37:05;;;;;;;3.45;1.98;;;8.70;86.60;;;;;;10949015;32;20011;-73
2023/01/24 04:43:10;;;;;;;3.62;1.62;;;8.80;86.30;;;;;;10934351;32;20061;-73
2023/01/24 04:49:13;;;;;;;2.97;1.95;;;8.80;86.20;;;;;;10948204;32;20089;-73
2023/01/24 04:55:16;;;;;;;3.12;1.90;;;8.70;86.00;;;;;;10948198;32;20023;-74
2023/01/24 05:01:18;;;;;;;2.25;1.90;;;8.70;86.10;;;;;;10948052;32;20015;-74
2023/01/24 05:07:21;;;;;;;2.03;1.27;;;8.80;85.70;;;;;;10947832;32;20435;-74
2023/01/24 05:13:24;;;;;;;5.00;1.65;;;8.90;85.20;;;;;;10947635;32;20018;-74
2023/01/24 05:19:26;;;;;;;2.45;1.25;;;8.80;84.80;;;;;;10947374;32;20027;-74
2023/01/24 05:25:28;;;;;;;5.03;2.25;;;8.50;85.00;;;;;;10942642;32;20018;-74
2023/01/24 05:31:31;;;;;;;4.62;2.97;;;8.70;85.10;;;;;;10946718;32;20053;-74
2023/01/24 05:37:37;;;;;;;3.17;1.80;;;9.00;85.40;;;;;;10946815;32;20033;-74
2023/01/24 05:43:39;;;;;;;5.93;2.97;;;9.00;84.70;;;;;;10946592;32;20071;-74
2023/01/24 05:49:41;;;;;;;3.17;2.00;;;9.00;84.40;;;;;;10946312;32;20049;-74
2023/01/24 05:55:45;;;;;;;6.28;3.58;;;8.80;84.00;;;;;;10944162;32;20053;-74
2023/01/24 06:01:47;;;;;;;8.80;3.53;;;8.50;84.50;;;;;;10945583;32;20432;-74
2023/01/24 06:07:54;;;;;;;7.43;4.22;;;8.70;84.20;;;;;;10945389;32;20349;-74
2023/01/24 06:14:23;;;;;;;3.47;2.12;;;8.90;84.10;;;;;;10944661;32;20332;-74
2023/01/24 06:20:26;;;;;;;5.68;2.37;;;9.00;83.80;;;;;;10931420;32;20336;-74
2023/01/24 06:26:28;;;;;;;6.15;3.62;;;9.00;83.50;;;;;;10943828;32;20432;-74
2023/01/24 06:32:54;;;;;;;5.65;2.67;;;9.00;83.20;;;;;;10944657;32;20058;-74
2023/01/24 06:38:57;;;;;;;4.53;2.45;;;9.10;83.20;;;;;;10939618;32;20022;-74
2023/01/24 06:44:59;;;;;;;5.18;2.10;;;9.20;83.90;;;;;;10944421;32;20510;-74
2023/01/24 06:51:01;;;;;;;4.28;2.80;;;9.40;84.60;;;;;;10943847;32;20428;-73
2023/01/24 06:57:03;;;;;;;6.22;3.62;;;9.40;84.60;;;;;;10943572;32;20057;-74
2023/01/24 07:03:07;;;;;;;4.40;3.03;;;9.40;83.90;;;;;;10942822;32;20049;-74
2023/01/24 07:09:16;;;;;;;5.97;4.07;;;9.30;83.60;;;;;;10941009;32;20030;-74
2023/01/24 07:15:18;;;;;;;5.68;3.20;;;9.40;83.70;;;;;;10971516;32;20026;-74
2023/01/24 07:21:20;;;;;;;5.62;3.45;;;9.40;83.70;;;;;;10980848;32;20022;-74
2023/01/24 07:27:44;;;;;;;5.07;3.47;;;9.50;83.40;;;;;;10976388;32;20056;-75
2023/01/24 07:33:48;;;;;;;5.60;4.03;;;9.50;83.80;;;;;;10980178;32;20023;-75
2023/01/24 07:40:30;;;;;;;7.40;2.95;;;9.60;84.50;;;;;;10966307;32;20321;-75
2023/01/24 07:46:33;;;;;;;4.53;2.92;;;9.60;85.20;;;;;;10966192;32;20034;-75
2023/01/24 07:52:35;;;;;;;7.70;4.28;;;9.70;85.60;;;;;;10928664;32;20019;-75
2023/01/24 07:58:37;;;;;;;4.32;3.05;;;9.80;85.60;;;;;;10914974;32;20041;-74
2023/01/24 08:04:39;;;;;;;5.32;4.00;;;9.80;85.40;;;;;;10941556;32;20015;-75
2023/01/24 08:10:41;;;;;;;4.85;2.50;;;9.90;86.00;;;;;;10933500;32;20345;-75
2023/01/24 08:16:43;;;;;;;5.25;3.20;;;9.80;85.80;;;;;;10941743;32;20015;-75
2023/01/24 08:22:45;;;;;;;6.37;3.45;;;9.90;86.50;;;;;;10945856;27;20057;-74
2023/01/24 08:28:47;;;;;;;6.37;3.83;;;10.10;86.40;;;;;;10941403;32;20031;-75
2023/01/24 08:34:49;;;;;;;8.20;4.78;;;10.20;86.20;;;;;;10941058;32;20011;-75
2023/01/24 08:40:50;;;;;;;5.65;3.12;;;10.20;86.30;;;;;;10941021;32;20054;-75
2023/01/24 08:46:52;;;;;;;8.30;4.40;;;10.20;86.40;;;;;;10941090;32;20344;-75
2023/01/24 08:52:56;;;;;;;5.05;2.67;;;10.30;86.60;;;;;;10940837;32;20031;-75
2023/01/24 08:58:58;;;;;;;5.18;2.58;;;10.20;86.70;;;;;;10940898;32;20019;-75
2023/01/24 09:05:00;;;;;;;4.75;2.62;;;10.20;87.10;;;;;;10947536;32;20069;-75
2023/01/24 09:11:03;;;;;;;5.47;2.55;;;10.40;87.40;;;;;;10947575;32;20037;-75
2023/01/24 09:17:05;;;;;;;6.00;2.72;;;10.50;87.30;;;;;;10947291;32;20019;-74
2023/01/24 09:23:12;;;;;;;5.25;2.30;;;10.20;87.80;;;;;;10947208;32;20042;-74
2023/01/24 09:29:19;;;;;;;2.62;1.50;;;10.10;88.70;;;;;;10920761;32;20065;-75
2023/01/24 09:35:21;;;;;;;3.17;1.90;;;10.30;88.50;;;;;;10946927;32;20360;-75
2023/01/24 09:41:45;;;;;;;5.20;3.53;;;10.50;88.40;;;;;;10946774;32;20345;-75
2023/01/24 09:47:59;;;;;;;4.35;1.98;;;10.60;88.10;;;;;;10945054;32;20027;-74
2023/01/24 09:54:03;;;;;;;2.37;1.55;;;10.30;88.30;;;;;;10945463;32;20035;-74
2023/01/24 10:00:34;;;;;;;4.62;1.75;;;10.40;88.30;;;;;;10945493;32;20023;-74
2023/01/24 10:07:13;;;;;;;2.75;2.05;;;10.30;88.20;;;;;;10945599;32;20295;-74
2023/01/24 10:13:34;;;;;;;3.10;1.83;;;10.50;88.50;;;;;;10944777;32;20023;-74
2023/01/24 10:20:05;;;;;;;3.80;1.70;;;10.50;88.40;;;;;;10941345;32;20011;-74
2023/01/24 10:26:41;;;;;;;3.20;1.80;;;10.70;88.40;;;;;;10945172;32;20041;-74
2023/01/24 10:32:44;;;;;;;3.58;2.05;;;10.90;88.50;;;;;;10944569;32;20014;-74
2023/01/24 10:38:46;;;;;;;4.35;2.55;;;11.00;88.20;;;;;;10944463;32;20042;-74
2023/01/24 10:44:48;;;;;;;3.53;1.92;;;11.00;88.20;;;;;;10931008;32;20011;-74
2023/01/24 10:51:30;;;;;;;12.07;2.42;;;11.20;88.30;;;;;;10941589;32;20015;-74
2023/01/24 10:57:43;;;;;;;4.07;2.25;;;11.50;88.00;;;;;;10755393;33;20020;-74
2023/01/24 11:03:48;;;;;;;4.47;2.70;;;11.40;88.30;;;;;;10754007;33;20047;-74
2023/01/24 11:09:50;;;;;;;2.95;2.15;;;11.20;88.50;;;;;;10753893;33;20112;-74
2023/01/24 11:16:01;;;;;;;2.78;1.52;;;11.20;88.80;;;;;;10753764;33;20033;-74
2023/01/24 11:22:19;;;;;;;3.80;2.25;;;11.40;89.10;;;;;;10753206;33;20044;-74
2023/01/24 11:28:35;;;;;;;2.12;1.40;;;11.80;88.70;;;;;;10757305;32;20052;-74
2023/01/24 11:35:11;;;;;;;5.87;2.90;;;12.00;88.10;;;;;;10942646;32;20011;-73
2023/01/24 11:41:22;;;;;;;4.32;2.15;;;12.20;87.80;;;;;;10942173;32;20064;-73
2023/01/24 11:47:36;;;;;;;2.92;2.08;;;12.10;88.10;;;;;;10925605;32;20023;-73
2023/01/24 11:53:38;;;;;;;1.85;1.25;;;12.00;88.20;;;;;;10942120;32;20038;-73
2023/01/24 12:00:22;;;;;;;4.32;2.17;;;12.00;88.20;;;;;;10942007;32;20337;-73
2023/01/24 12:06:32;;;;;;;4.68;2.03;;;11.90;88.30;;;;;;10777128;32;20052;-73
2023/01/24 12:13:03;;;;;;;3.33;2.15;;;11.70;88.70;;;;;;10788344;33;20450;-73
2023/01/24 12:19:29;;;;;;;3.55;2.15;;;11.80;88.70;;;;;;10749200;32;20057;-72
2023/01/24 12:25:36;;;;;;;2.50;1.65;;;11.80;88.30;;;;;;10750182;32;20056;-72
2023/01/24 12:32:11;;;;;;;2.95;1.83;;;11.80;88.50;;;;;;10752899;32;20328;-72
2023/01/24 12:38:30;;;;;;;2.72;2.00;;;11.90;88.50;;;;;;10756428;32;20033;-72
2023/01/24 12:44:48;;;;;;;3.92;2.17;;;12.10;88.40;;;;;;10795115;32;20428;-72
2023/01/24 12:50:58;;;;;;;3.37;2.15;;;12.30;88.00;;;;;;10799217;32;20028;-72
2023/01/24 12:57:16;;;;;;;4.82;2.30;;;12.40;87.90;;;;;;10947825;32;20386;-72
2023/01/24 13:03:34;;;;;;;1.33;1.23;;;12.40;87.40;;;;;;10947779;32;20037;-72
2023/01/24 13:09:43;;;;;;;2.97;2.30;;;12.40;88.30;;;;;;10947570;32;20353;-72
2023/01/24 13:16:07;;;;;;;1.65;1.30;;;12.60;88.50;;;;;;10947289;32;20038;-72
2023/01/24 13:22:28;;;;;;;2.92;1.80;;;12.60;88.50;;;;;;10947148;32;20050;-72
2023/01/24 13:28:43;;;;;;;2.67;1.90;;;12.60;88.40;;;;;;10947005;32;20023;-72
2023/01/24 13:34:50;;;;;;;4.28;2.85;;;12.70;88.50;;;;;;10946922;32;20027;-72
2023/01/24 13:41:00;;;;;;;4.25;2.25;;;12.70;88.40;;;;;;10932788;32;20050;-72
2023/01/24 13:47:17;;;;;;;3.28;1.65;;;12.70;88.50;;;;;;10946161;32;20026;-71
2023/01/24 13:53:58;;;;;;;2.47;1.50;;;12.80;88.80;;;;;;10946138;32;20434;-71
2023/01/24 14:00:09;;;;;;;2.00;1.80;;;12.80;88.70;;;;;;10932505;32;20015;-72
2023/01/24 14:06:16;;;;;;;2.80;1.60;;;12.80;88.70;;;;;;10947185;32;20038;-72
2023/01/24 14:12:19;;;;;;;2.95;1.75;;;12.80;88.90;;;;;;10945661;32;20023;-72
2023/01/24 14:18:39;;;;;;;1.77;1.12;;;12.80;89.00;;;;;;10945278;32;20073;-72
2023/01/24 14:24:54;;;;;;;3.62;2.30;;;12.90;88.90;;;;;;10937491;32;20362;-72
2023/01/24 14:31:24;;;;;;;2.65;1.80;;;12.80;88.80;;;;;;10909472;32;20031;-72
2023/01/24 14:37:27;;;;;;;3.62;2.05;;;12.80;88.90;;;;;;10906729;32;20011;-72
2023/01/24 14:43:35;;;;;;;2.15;1.92;;;12.70;89.00;;;;;;10906374;32;20330;-72
2023/01/24 14:49:49;;;;;;;2.78;1.75;;;12.50;89.80;;;;;;10892731;32;20023;-72
2023/01/24 14:55:52;;;;;;;5.40;2.35;;;12.70;89.60;;;;;;10905934;32;20082;-72
2023/01/24 15:01:54;;;;;;;3.22;2.10;;;12.60;89.60;;;;;;10891936;32;20019;-72
2023/01/24 15:07:59;;;;;;;3.90;2.28;;;12.50;89.70;;;;;;10891851;32;20027;-72
2023/01/24 15:14:07;;;;;;;2.28;1.60;;;12.40;89.80;;;;;;10903742;32;20027;-72
2023/01/24 15:20:11;;;;;;;3.33;2.67;;;12.30;90.10;;;;;;10904326;32;20556;-72
2023/01/24 15:26:22;;;;;;;4.90;2.78;;;12.40;90.30;;;;;;10903158;32;20050;-72
2023/01/24 15:32:33;;;;;;;3.72;2.12;;;12.50;90.30;;;;;;10902935;32;20022;-72
2023/01/24 15:38:52;;;;;;;4.82;2.40;;;12.50;90.20;;;;;;10903260;32;20015;-72
2023/01/24 15:44:54;;;;;;;3.90;2.47;;;12.50;90.10;;;;;;10903079;32;20339;-72
2023/01/24 15:51:08;;;;;;;3.65;1.62;;;12.40;89.80;;;;;;10902578;32;20130;-73
2023/01/24 15:57:19;;;;;;;4.45;3.40;;;12.20;89.90;;;;;;10902323;32;20015;-73
2023/01/24 16:03:22;;;;;;;5.30;3.85;;;12.20;90.00;;;;;;10898237;32;20023;-73
2023/01/24 16:09:24;;;;;;;11.20;4.40;;;12.20;89.90;;;;;;10887926;32;20019;-72
2023/01/24 16:15:27;;;;;;;11.35;5.07;;;12.10;89.80;;;;;;10902374;32;20428;-72
2023/01/24 16:21:29;;;;;;;7.87;4.97;;;12.10;89.90;;;;;;10541101;27;12068704;-72
2023/01/24 16:27:32;;;;;;;10.38;5.70;;;12.10;90.00;;;;;;10900260;32;20101;-72
2023/01/24 16:33:36;;;;;;;9.27;5.93;;;12.00;89.80;;;;;;10899091;32;20310;-72
2023/01/24 16:39:38;;;;;;;9.93;6.12;;;11.90;89.70;;;;;;10900458;32;20040;-73
2023/01/24 16:45:46;;;;;;;7.57;5.93;;;11.80;89.60;;;;;;10887281;32;20054;-73
2023/01/24 16:51:49;;;;;;;8.65;5.68;;;11.70;89.60;;;;;;10903176;32;20413;-73
2023/01/24 16:57:51;;;;;;;7.35;4.80;;;11.70;89.60;;;;;;10902930;32;20093;-72
2023/01/24 17:03:53;;;;;;;7.90;5.12;;;11.70;89.50;;;;;;10876866;32;20035;-72
2023/01/24 17:09:56;;;;;;;7.93;5.15;;;11.70;89.50;;;;;;10902719;32;20050;-72
2023/01/24 17:16:07;;;;;;;8.00;5.30;;;11.60;89.50;;;;;;10887930;32;20057;-72
2023/01/24 17:22:09;;;;;;;10.95;5.95;;;11.50;89.20;;;;;;10882563;32;20023;-72
2023/01/24 17:28:11;;;;;;;11.55;7.10;;;11.20;89.00;;;;;;10877092;32;20055;-72
2023/01/24 17:34:13;;;;;;;8.25;4.72;;;11.00;89.20;;;;;;10871905;32;20054;-72
2023/01/24 17:40:15;;;;;;;8.40;4.65;;;11.00;89.60;;;;;;10892975;32;20070;-72
2023/01/24 17:46:17;;;;;;;6.07;4.40;;;11.20;89.70;;;;;;10908877;32;20027;-72
2023/01/24 17:52:19;;;;;;;6.18;4.40;;;11.40;89.60;;;;;;10895923;32;20045;-72
2023/01/24 17:58:21;;;;;;;5.60;4.18;;;11.50;89.60;;;;;;10906023;32;20390;-72
2023/01/24 18:04:36;;;;;;;6.70;4.45;;;11.40;89.60;;;;;;10908189;32;20015;-72
2023/01/24 18:10:38;;;;;;;7.53;4.47;;;11.40;89.50;;;;;;10907368;32;20027;-72
2023/01/24 18:16:40;;;;;;;5.28;3.25;;;11.40;89.70;;;;;;10907722;32;20020;-72
2023/01/24 18:22:42;;;;;;;8.10;5.00;;;11.40;89.80;;;;;;10907474;32;20063;-73
2023/01/24 18:28:44;;;;;;;5.25;3.83;;;11.30;89.50;;;;;;10907424;32;20027;-72
2023/01/24 18:34:53;;;;;;;6.35;3.97;;;11.20;89.70;;;;;;10906417;32;20409;-72
2023/01/24 18:40:54;;;;;;;7.15;4.78;;;11.20;89.90;;;;;;10906765;32;20046;-72
2023/01/24 18:46:56;;;;;;;7.97;5.62;;;11.20;89.80;;;;;;10903229;32;20023;-72
2023/01/24 18:52:58;;;;;;;8.70;5.62;;;11.00;89.90;;;;;;10893097;32;20019;-72
2023/01/24 18:59:00;;;;;;;7.95;5.18;;;11.00;90.00;;;;;;10906232;32;20023;-71
2023/01/24 19:05:06;;;;;;;10.32;6.78;;;11.10;90.00;;;;;;10905970;32;20054;-72
2023/01/24 19:11:10;;;;;;;8.68;5.20;;;11.20;90.00;;;;;;10905482;32;20023;-72
2023/01/24 19:17:12;;;;;;;9.95;7.40;;;11.20;89.60;;;;;;10905228;32;20077;-72
2023/01/24 19:23:14;;;;;;;8.88;6.20;;;11.00;89.60;;;;;;10905182;32;20027;-72
2023/01/24 19:29:16;;;;;;;8.65;6.05;;;11.00;89.50;;;;;;10901905;32;20046;-73
2023/01/24 19:35:20;;;;;;;14.40;8.63;;;10.90;89.50;;;;;;10901166;32;20050;-72
2023/01/24 19:41:23;;;;;;;9.55;5.72;;;11.00;89.60;;;;;;10866463;32;20120;-73
2023/01/24 19:47:25;;;;;;;7.45;4.32;;;10.90;89.60;;;;;;10867092;32;20046;-73
2023/01/24 19:53:27;;;;;;;5.15;3.65;;;10.90;89.40;;;;;;10866198;32;20036;-72
2023/01/24 19:59:30;;;;;;;9.43;5.28;;;10.90;89.40;;;;;;10866936;32;20453;-72
2023/01/24 20:05:37;;;;;;;6.22;4.53;;;10.90;89.40;;;;;;10866748;32;20047;-73
2023/01/24 20:11:40;;;;;;;6.93;4.43;;;10.80;89.50;;;;;;10866322;32;20019;-72
2023/01/24 20:17:42;;;;;;;7.70;4.82;;;10.80;89.50;;;;;;10866406;32;20051;-72
2023/01/24 20:23:45;;;;;;;6.72;4.05;;;10.80;89.70;;;;;;10866333;32;20046;-73
2023/01/24 20:29:47;;;;;;;6.30;4.10;;;10.80;89.60;;;;;;10866318;32;20299;-73
2023/01/24 20:36:03;;;;;;;6.45;4.22;;;10.70;89.30;;;;;;10866062;32;20020;-73
2023/01/24 20:42:05;;;;;;;6.43;3.92;;;10.70;89.60;;;;;;10865825;32;20016;-73
2023/01/24 20:48:07;;;;;;;7.55;5.40;;;10.60;89.80;;;;;;10865710;32;20020;-73
2023/01/24 20:54:10;;;;;;;5.35;3.40;;;10.50;89.50;;;;;;10865635;32;20043;-72
2023/01/24 21:00:13;;;;;;;6.37;3.58;;;10.20;89.50;;;;;;10870679;32;20482;-72
2023/01/24 21:06:23;;;;;;;5.37;3.10;;;10.30;89.90;;;;;;10872107;32;20032;-72
2023/01/24 21:12:25;;;;;;;5.72;2.97;;;10.40;90.00;;;;;;10808899;32;20087;-72
2023/01/24 21:18:28;;;;;;;9.38;4.37;;;10.50;90.10;;;;;;10891630;32;20082;-72
2023/01/24 21:24:34;;;;;;;7.37;3.62;;;10.50;89.90;;;;;;10871758;32;20053;-72
2023/01/24 21:30:37;;;;;;;7.40;4.45;;;10.50;90.00;;;;;;10871719;32;20019;-72
2023/01/24 21:36:39;;;;;;;6.95;4.25;;;10.50;90.10;;;;;;10871420;32;20395;-72
2023/01/24 21:42:41;;;;;;;6.03;4.18;;;10.40;90.10;;;;;;10871130;32;20020;-73
2023/01/24 21:55:05;;;;;;;6.87;4.30;;;10.50;90.00;;;;;;10907006;32;20027;-72
2023/01/24 22:01:07;;;;;;;4.60;3.08;;;10.40;90.00;;;;;;10908423;32;20020;-72
2023/01/24 22:07:10;;;;;;;7.20;4.25;;;10.50;90.00;;;;;;10899875;32;20046;-72
2023/01/24 22:13:12;;;;;;;6.03;3.78;;;10.50;90.00;;;;;;10886300;32;20490;-73
2023/01/24 22:19:26;;;;;;;5.40;3.95;;;10.60;90.00;;;;;;10886272;32;20055;-73
2023/01/24 22:25:54;;;;;;;4.85;3.17;;;10.60;90.00;;;;;;10870156;32;20032;-73
2023/01/24 22:31:56;;;;;;;8.07;4.15;;;10.50;89.80;;;;;;10870085;32;20042;-74
2023/01/24 22:37:59;;;;;;;7.70;4.82;;;10.50;89.80;;;;;;10866192;32;20307;-73
2023/01/24 22:44:01;;;;;;;5.62;3.90;;;10.50;89.80;;;;;;10869551;32;20047;-74
2023/01/24 22:50:03;;;;;;;5.57;4.10;;;10.60;89.70;;;;;;10869148;32;20060;-73
2023/01/24 22:56:06;;;;;;;7.68;4.75;;;10.60;89.40;;;;;;10869015;32;20380;-74
2023/01/24 23:02:08;;;;;;;7.12;4.68;;;10.60;89.30;;;;;;10868918;32;20042;-74
2023/01/24 23:08:11;;;;;;;7.45;4.80;;;10.30;89.30;;;;;;10868909;32;20416;-74
2023/01/24 23:27:07;;;;;;;6.90;4.47;;;10.40;89.40;;;;;;10754542;33;20039;-74
2023/01/24 23:33:47;;;;;;;7.35;5.00;;;10.30;89.40;;;;;;10753249;33;20025;-74
2023/01/24 23:39:50;;;;;;;7.60;5.20;;;10.10;89.20;;;;;;10752529;33;20040;-74
2023/01/24 23:45:51;;;;;;;8.65;5.75;;;10.00;89.30;;;;;;10752913;33;20029;-74
2023/01/24 23:51:54;;;;;;;8.57;5.07;;;10.00;89.30;;;;;;10752692;33;20421;-74
2023/01/24 23:58:00;;;;;;;6.12;4.18;;;10.10;89.50;;;;;;10753718;33;20056;-73
